sensor_id;sensor_type;location;lat;lon;timestamp;temperature;humidity
45311;SHT31;68264;51.540;5.854;2024-01-06T00:11:06;7.4;95.7
45311;SHT31;68264;51.540;5.854;2024-01-06T00:26:05;7.3;95.1
45311;SHT31;68264;51.540;5.854;2024-01-06T00:40:05;7.4;94.8
45311;SHT31;68264;51.540;5.854;2024-01-06T00:54:04;7.3;94.1
45311;SHT31;68264;51.540;5.854;2024-01-06T01:08:03;7.1;93.4
45311;SHT31;68264;51.540;5.854;2024-01-06T01:24:07;6.9;93.2
45311;SHT31;68264;51.540;5.854;2024-01-06T01:40:36;6.7;92.5
45311;SHT31;68264;51.540;5.854;2024-01-06T01:54:56;6.6;91.8
45311;SHT31;68264;51.540;5.854;2024-01-06T02:10:28;6.5;91.3
45311;SHT31;68264;51.540;5.854;2024-01-06T02:25:58;6.3;91.0
45311;SHT31;68264;51.540;5.854;2024-01-06T02:40:58;6.1;90.7
45311;SHT31;68264;51.540;5.854;2024-01-06T02:55:58;5.9;89.7
45311;SHT31;68264;51.540;5.854;2024-01-06T03:10:26;5.8;88.9
45311;SHT31;68264;51.540;5.854;2024-01-06T03:25:14;5.6;88.6
45311;SHT31;68264;51.540;5.854;2024-01-06T03:39:34;5.5;88.3
45311;SHT31;68264;51.540;5.854;2024-01-06T03:54:02;5.4;88.2
45311;SHT31;68264;51.540;5.854;2024-01-06T04:08:50;5.3;88.7
45311;SHT31;68264;51.540;5.854;2024-01-06T04:23:09;5.3;88.3
45311;SHT31;68264;51.540;5.854;2024-01-06T04:37:38;5.3;88.1
45311;SHT31;68264;51.540;5.854;2024-01-06T04:52:58;5.4;88.6
45311;SHT31;68264;51.540;5.854;2024-01-06T05:07:58;5.2;89.2
45311;SHT31;68264;51.540;5.854;2024-01-06T05:22:58;5.2;89.6
45311;SHT31;68264;51.540;5.854;2024-01-06T05:38:27;5.1;89.7
45311;SHT31;68264;51.540;5.854;2024-01-06T05:52:46;5.1;89.4
45311;SHT31;68264;51.540;5.854;2024-01-06T06:06:45;4.9;90.2
45311;SHT31;68264;51.540;5.854;2024-01-06T06:20:44;4.9;90.6
45311;SHT31;68264;51.540;5.854;2024-01-06T06:35:12;4.9;90.3
45311;SHT31;68264;51.540;5.854;2024-01-06T06:49:32;4.9;89.6
45311;SHT31;68264;51.540;5.854;2024-01-06T07:03:31;4.8;88.9
45311;SHT31;68264;51.540;5.854;2024-01-06T07:17:30;4.7;88.9
45311;SHT31;68264;51.540;5.854;2024-01-06T07:31:58;4.6;89.1
45311;SHT31;68264;51.540;5.854;2024-01-06T07:46:17;4.6;89.5
45311;SHT31;68264;51.540;5.854;2024-01-06T08:00:16;4.5;89.7
45311;SHT31;68264;51.540;5.854;2024-01-06T08:14:15;4.4;89.7
45311;SHT31;68264;51.540;5.854;2024-01-06T08:28:15;4.2;89.7
45311;SHT31;68264;51.540;5.854;2024-01-06T08:42:14;4.1;90.1
45311;SHT31;68264;51.540;5.854;2024-01-06T08:56:13;4.1;90.4
45311;SHT31;68264;51.540;5.854;2024-01-06T09:10:41;4.0;90.7
45311;SHT31;68264;51.540;5.854;2024-01-06T09:25:00;4.0;90.3
45311;SHT31;68264;51.540;5.854;2024-01-06T09:38:59;4.0;89.3
45311;SHT31;68264;51.540;5.854;2024-01-06T09:52:58;4.0;89.3
45311;SHT31;68264;51.540;5.854;2024-01-06T10:06:57;4.0;88.7
45311;SHT31;68264;51.540;5.854;2024-01-06T10:20:57;4.0;88.5
45311;SHT31;68264;51.540;5.854;2024-01-06T10:34:56;4.0;88.5
45311;SHT31;68264;51.540;5.854;2024-01-06T10:48:55;4.0;89.0
45311;SHT31;68264;51.540;5.854;2024-01-06T11:03:23;4.0;88.9
45311;SHT31;68264;51.540;5.854;2024-01-06T11:18:11;4.1;89.3
45311;SHT31;68264;51.540;5.854;2024-01-06T11:32:31;4.1;89.1
45311;SHT31;68264;51.540;5.854;2024-01-06T11:46:30;4.0;89.2
45311;SHT31;68264;51.540;5.854;2024-01-06T12:01:30;4.0;89.6
45311;SHT31;68264;51.540;5.854;2024-01-06T12:16:30;3.9;89.3
45311;SHT31;68264;51.540;5.854;2024-01-06T12:30:29;3.9;89.0
45311;SHT31;68264;51.540;5.854;2024-01-06T12:44:28;3.9;88.8
45311;SHT31;68264;51.540;5.854;2024-01-06T13:00:32;3.9;88.2
45311;SHT31;68264;51.540;5.854;2024-01-06T13:16:32;3.8;88.4
45311;SHT31;68264;51.540;5.854;2024-01-06T13:31:00;3.7;88.3
45311;SHT31;68264;51.540;5.854;2024-01-06T13:45:49;3.7;88.6
45311;SHT31;68264;51.540;5.854;2024-01-06T14:01:41;3.7;88.3
45311;SHT31;68264;51.540;5.854;2024-01-06T14:18:12;3.5;88.7
45311;SHT31;68264;51.540;5.854;2024-01-06T14:33:41;3.4;88.6
45311;SHT31;68264;51.540;5.854;2024-01-06T14:48:00;3.4;89.4
45311;SHT31;68264;51.540;5.854;2024-01-06T15:01:59;3.5;89.3
45311;SHT31;68264;51.540;5.854;2024-01-06T15:15:58;3.3;89.6
45311;SHT31;68264;51.540;5.854;2024-01-06T15:29:58;3.4;90.1
45311;SHT31;68264;51.540;5.854;2024-01-06T15:43:57;3.4;89.4
45311;SHT31;68264;51.540;5.854;2024-01-06T15:57:56;3.3;88.4
45311;SHT31;68264;51.540;5.854;2024-01-06T16:11:55;3.3;87.8
45311;SHT31;68264;51.540;5.854;2024-01-06T16:26:55;3.3;88.1
45311;SHT31;68264;51.540;5.854;2024-01-06T16:41:55;3.2;88.1
45311;SHT31;68264;51.540;5.854;2024-01-06T16:58:31;3.3;87.3
45311;SHT31;68264;51.540;5.854;2024-01-06T17:16:35;3.4;87.8
45311;SHT31;68264;51.540;5.854;2024-01-06T17:33:06;3.5;87.7
45311;SHT31;68264;51.540;5.854;2024-01-06T17:48:06;3.5;87.3
45311;SHT31;68264;51.540;5.854;2024-01-06T18:02:05;3.4;86.8
45311;SHT31;68264;51.540;5.854;2024-01-06T18:16:04;3.4;86.7
45311;SHT31;68264;51.540;5.854;2024-01-06T18:30:03;3.4;87.1
45311;SHT31;68264;51.540;5.854;2024-01-06T18:44:02;3.4;87.1
45311;SHT31;68264;51.540;5.854;2024-01-06T18:58:01;3.5;87.0
45311;SHT31;68264;51.540;5.854;2024-01-06T19:12:29;3.2;86.6
45311;SHT31;68264;51.540;5.854;2024-01-06T19:27:18;3.1;87.0
45311;SHT31;68264;51.540;5.854;2024-01-06T19:41:37;3.1;86.5
45311;SHT31;68264;51.540;5.854;2024-01-06T19:55:36;3.2;86.2
45311;SHT31;68264;51.540;5.854;2024-01-06T20:09:35;3.2;86.2
45311;SHT31;68264;51.540;5.854;2024-01-06T20:23:34;3.2;85.4
45311;SHT31;68264;51.540;5.854;2024-01-06T20:37:33;3.1;85.4
45311;SHT31;68264;51.540;5.854;2024-01-06T20:51:33;3.1;85.6
45311;SHT31;68264;51.540;5.854;2024-01-06T21:05:32;2.9;86.4
45311;SHT31;68264;51.540;5.854;2024-01-06T21:19:31;2.7;87.4
45311;SHT31;68264;51.540;5.854;2024-01-06T21:33:59;2.7;88.3
45311;SHT31;68264;51.540;5.854;2024-01-06T21:48:18;2.4;88.4
45311;SHT31;68264;51.540;5.854;2024-01-06T22:02:17;2.4;89.1
45311;SHT31;68264;51.540;5.854;2024-01-06T22:16:16;2.4;89.5
45311;SHT31;68264;51.540;5.854;2024-01-06T22:30:15;2.1;90.5
45311;SHT31;68264;51.540;5.854;2024-01-06T22:44:15;2.0;91.0
45311;SHT31;68264;51.540;5.854;2024-01-06T22:58:14;2.0;91.5
45311;SHT31;68264;51.540;5.854;2024-01-06T23:12:13;2.1;91.3
45311;SHT31;68264;51.540;5.854;2024-01-06T23:26:12;2.2;90.7
45311;SHT31;68264;51.540;5.854;2024-01-06T23:40:40;2.3;90.3
45311;SHT31;68264;51.540;5.854;2024-01-06T23:55:28;2.4;89.7
